Time;durP1;ratioP1;P1;durP2;ratioP2;P2;SDS_P1;SDS_P2;PMS_P1;PMS_P2;Temp;Humidity;BMP_temperature;BMP_pressure;BME280_temperature;BME280_humidity;BME280_pressure;Samples;Min_cycle;Max_cycle;Signal;HPM_P1;HPM_P2
2022/09/04 00:00:02;;;;;;;;;;;435.30;2355.20;;;;;;5031238;28;19917;-59
2022/09/04 00:02:30;;;;;;;;;;;435.30;2355.20;;;;;;5031330;28;19913;-59
2022/09/04 00:05:19;;;;;;;;;;;435.30;2355.20;;;;;;5031127;28;19952;-59
2022/09/04 00:07:51;;;;;;;;;;;435.30;2355.20;;;;;;5031097;28;19928;-59
2022/09/04 00:10:16;;;;;;;;;;;435.30;2355.20;;;;;;5031201;28;20371;-59
2022/09/04 00:13:02;;;;;;;;;;;435.30;2355.20;;;;;;5030730;28;19917;-58
2022/09/04 00:15:32;;;;;;;;;;;435.30;2355.20;;;;;;5020406;28;19913;-59
2022/09/04 00:18:01;;;;;;;;;;;435.30;2355.20;;;;;;5031033;28;20055;-58
2022/09/04 00:20:27;;;;;;;;;;;435.40;2201.60;;;;;;5031106;28;19909;-59
2022/09/04 00:22:57;;;;;;;;;;;435.30;2355.20;;;;;;5030923;28;20298;-59
2022/09/04 00:25:42;;;;;;;;;;;435.30;2355.20;;;;;;5030840;28;19916;-58
2022/09/04 00:28:10;;;;;;;;;;;435.20;2355.20;;;;;;5030871;28;19917;-58
2022/09/04 00:30:41;;;;;;;;;;;435.20;2355.20;;;;;;5030937;28;19909;-59
2022/09/04 00:33:13;;;;;;;;;;;435.20;2355.20;;;;;;5031008;28;19963;-59
2022/09/04 00:35:43;;;;;;;;;;;435.20;2355.20;;;;;;5031337;28;19910;-58
2022/09/04 00:38:18;;;;;;;;;;;435.20;2355.20;;;;;;5034770;28;19909;-59
2022/09/04 00:40:51;;;;;;;;;;;435.30;2355.20;;;;;;5034704;28;19913;-58
2022/09/04 00:43:32;;;;;;;;;;;410.50;2355.20;;;;;;5034603;28;20004;-59
2022/09/04 00:46:01;;;;;;;;;;;435.20;2355.20;;;;;;5034748;28;19917;-59
2022/09/04 00:48:35;;;;;;;;;;;435.20;2355.20;;;;;;5034743;28;19917;-59
2022/09/04 00:51:07;;;;;;;;;;;435.20;2355.20;;;;;;5034342;28;19919;-58
2022/09/04 00:53:51;;;;;;;;;;;435.30;2355.20;;;;;;5034421;28;19920;-59
2022/09/04 00:56:36;;;;;;;;;;;435.30;2355.20;;;;;;5034822;28;20282;-59
2022/09/04 00:59:20;;;;;;;;;;;435.30;2355.20;;;;;;5033683;28;19916;-59
2022/09/04 01:01:46;;;;;;;;;;;435.30;2355.20;;;;;;5034822;28;20363;-59
2022/09/04 01:04:21;;;;;;;;;;;435.30;2227.20;;;;;;5034270;28;19953;-59
2022/09/04 01:06:56;;;;;;;;;;;410.50;2355.20;;;;;;5034582;28;19916;-59
2022/09/04 01:09:21;;;;;;;;;;;410.50;2355.20;;;;;;5034047;28;19963;-58
2022/09/04 01:12:06;;;;;;;;;;;410.50;2355.20;;;;;;5034427;28;19917;-59
2022/09/04 01:14:40;;;;;;;;;;;435.20;2355.20;;;;;;5033980;28;19909;-59
2022/09/04 01:17:26;;;;;;;;;;;435.30;2073.60;;;;;;5034313;28;20322;-59
2022/09/04 01:19:55;;;;;;;;;;;435.30;2201.60;;;;;;5032729;28;20016;-59
2022/09/04 01:22:20;;;;;;;;;;;435.40;2355.20;;;;;;5033633;28;19922;-59
2022/09/04 01:24:52;;;;;;;;;;;435.40;2355.20;;;;;;5034151;28;19991;-58
2022/09/04 01:27:36;;;;;;;;;;;435.40;2355.20;;;;;;5033847;28;19955;-59
2022/09/04 01:30:06;;;;;;;;;;;435.40;2355.20;;;;;;5033791;28;20004;-59
2022/09/04 01:32:44;;;;;;;;;;;435.40;2355.20;;;;;;5033830;28;19939;-58
2022/09/04 01:35:10;;;;;;;;;;;435.30;2355.20;;;;;;5033577;28;19909;-59
2022/09/04 01:37:41;;;;;;;;;;;435.30;2355.20;;;;;;5033838;28;19963;-59
2022/09/04 01:40:18;;;;;;;;;;;435.30;2355.20;;;;;;5033648;28;19909;-58
2022/09/04 01:42:53;;;;;;;;;;;435.30;2355.20;;;;;;5032166;28;19909;-58
2022/09/04 01:45:28;;;;;;;;;;;435.30;2355.20;;;;;;5033392;28;19916;-59
2022/09/04 01:47:58;;;;;;;;;;;435.30;2355.20;;;;;;5033217;28;19924;-59
2022/09/04 01:50:25;;;;;;;;;;;435.30;2355.20;;;;;;5033141;28;20303;-59
2022/09/04 01:52:59;;;;;;;;;;;435.40;2355.20;;;;;;5033449;28;19917;-59
2022/09/04 01:55:31;;;;;;;;;;;435.40;2355.20;;;;;;5033502;28;19909;-59
2022/09/04 01:57:57;;;;;;;;;;;435.40;2355.20;;;;;;5033465;28;20008;-59
2022/09/04 02:00:23;;;;;;;;;;;435.40;2355.20;;;;;;5033136;28;19956;-59
2022/09/04 02:02:52;;;;;;;;;;;435.40;2355.20;;;;;;5033138;28;19909;-59
2022/09/04 02:05:27;;;;;;;;;;;435.40;2355.20;;;;;;5033169;28;19920;-59
2022/09/04 02:08:13;;;;;;;;;;;435.50;2355.20;;;;;;5033145;28;19917;-57
2022/09/04 02:10:46;;;;;;;;;;;435.50;2355.20;;;;;;5022287;28;19974;-58
2022/09/04 02:13:12;;;;;;;;;;;435.50;2355.20;;;;;;5032750;28;19916;-59
2022/09/04 02:15:41;;;;;;;;;;;435.50;2355.20;;;;;;5032958;28;19913;-59
2022/09/04 02:18:13;;;;;;;;;;;435.40;2355.20;;;;;;5033002;28;20005;-59
2022/09/04 02:20:43;;;;;;;;;;;435.50;2355.20;;;;;;5033162;28;20487;-59
2022/09/04 02:23:28;;;;;;;;;;;435.40;2355.20;;;;;;5032673;28;19928;-59
2022/09/04 02:25:57;;;;;;;;;;;435.40;2355.20;;;;;;5032914;28;19916;-59
2022/09/04 02:28:34;;;;;;;;;;;435.40;2355.20;;;;;;5032618;28;19928;-59
2022/09/04 02:31:09;;;;;;;;;;;435.30;2355.20;;;;;;5032808;28;19909;-59
2022/09/04 02:33:35;;;;;;;;;;;410.50;2355.20;;;;;;5032643;28;19916;-59
2022/09/04 02:36:01;;;;;;;;;;;435.20;2176.00;;;;;;5032504;28;19913;-59
2022/09/04 02:38:39;;;;;;;;;;;435.20;2355.20;;;;;;5032640;28;19917;-59
2022/09/04 02:41:22;;;;;;;;;;;410.50;2355.20;;;;;;5032588;28;20445;-59
2022/09/04 02:44:09;;;;;;;;;;;410.40;2355.20;;;;;;5032449;28;19917;-58
2022/09/04 02:46:38;;;;;;;;;;;410.40;2355.20;;;;;;5032545;28;19916;-58
2022/09/04 02:49:22;;;;;;;;;;;410.50;2355.20;;;;;;5032081;28;20015;-59
2022/09/04 02:51:55;;;;;;;;;;;410.50;2355.20;;;;;;5032321;28;20280;-59
2022/09/04 02:54:39;;;;;;;;;;;410.50;2355.20;;;;;;5032089;28;19921;-59
2022/09/04 02:57:13;;;;;;;;;;;410.40;2355.20;;;;;;5032123;28;19983;-58
2022/09/04 02:59:42;;;;;;;;;;;410.30;2355.20;;;;;;5031105;28;19909;-59
2022/09/04 03:02:12;;;;;;;;;;;410.30;2355.20;;;;;;5032443;28;20064;-59
2022/09/04 03:04:48;;;;;;;;;;;410.30;2355.20;;;;;;5032065;28;19913;-59
2022/09/04 03:07:20;;;;;;;;;;;410.40;2355.20;;;;;;5032186;28;20351;-59
2022/09/04 03:09:47;;;;;;;;;;;410.50;2355.20;;;;;;5032212;28;20287;-58
2022/09/04 03:12:28;;;;;;;;;;;410.50;2355.20;;;;;;5031894;28;19909;-60
2022/09/04 03:14:54;;;;;;;;;;;410.50;2099.20;;;;;;5032176;28;19909;-58
2022/09/04 03:17:27;;;;;;;;;;;410.50;2355.20;;;;;;5031643;28;20389;-60
2022/09/04 03:19:56;;;;;;;;;;;410.50;2099.20;;;;;;5031662;28;19909;-59
2022/09/04 03:22:24;;;;;;;;;;;410.50;2252.80;;;;;;5031367;28;20290;-59
2022/09/04 03:24:59;;;;;;;;;;;410.50;2355.20;;;;;;5031547;28;19914;-59
2022/09/04 03:27:25;;;;;;;;;;;410.50;2355.20;;;;;;5031833;28;20004;-59
2022/09/04 03:29:53;;;;;;;;;;;410.50;1996.80;;;;;;5031649;28;19913;-59
2022/09/04 03:32:30;;;;;;;;;;;410.30;2355.20;;;;;;5031558;28;19913;-60
2022/09/04 03:35:01;;;;;;;;;;;410.30;2355.20;;;;;;5031628;28;19913;-59
2022/09/04 03:37:45;;;;;;;;;;;410.30;2355.20;;;;;;5031538;28;19909;-60
2022/09/04 03:40:28;;;;;;;;;;;410.30;2355.20;;;;;;5031253;28;19948;-59
2022/09/04 03:43:00;;;;;;;;;;;410.40;2355.20;;;;;;5031637;28;20005;-58
2022/09/04 03:45:45;;;;;;;;;;;410.40;2355.20;;;;;;5031405;28;19909;-60
2022/09/04 03:48:36;;;;;;;;;;;410.50;2329.60;;;;;;5031161;28;19919;-59
2022/09/04 03:51:16;;;;;;;;;;;410.50;1996.80;;;;;;5007667;28;20051;-58
2022/09/04 03:53:44;;;;;;;;;;;410.50;2355.20;;;;;;5031221;28;19913;-59
2022/09/04 03:56:28;;;;;;;;;;;410.40;2355.20;;;;;;5031054;28;19909;-59
2022/09/04 03:59:00;;;;;;;;;;;410.40;2355.20;;;;;;5031273;28;19913;-59
2022/09/04 04:01:45;;;;;;;;;;;410.30;2355.20;;;;;;5031390;28;20123;-59
2022/09/04 04:04:14;;;;;;;;;;;410.30;2355.20;;;;;;5031077;28;19909;-59
2022/09/04 04:06:58;;;;;;;;;;;410.30;2355.20;;;;;;5030961;28;19913;-57
2022/09/04 04:09:44;;;;;;;;;;;410.50;2355.20;;;;;;5031395;28;20004;-57
2022/09/04 04:12:26;;;;;;;;;;;410.50;2355.20;;;;;;5036894;28;20429;-57
2022/09/04 04:15:00;;;;;;;;;;;410.50;2355.20;;;;;;5037325;28;19915;-58
2022/09/04 04:17:35;;;;;;;;;;;410.50;2355.20;;;;;;5037612;28;20007;-58
2022/09/04 04:20:20;;;;;;;;;;;410.50;2355.20;;;;;;5037657;28;20278;-57
2022/09/04 04:22:55;;;;;;;;;;;435.20;2355.20;;;;;;5037326;28;20334;-57
2022/09/04 04:25:24;;;;;;;;;;;435.20;2355.20;;;;;;5037483;28;19913;-57
2022/09/04 04:28:00;;;;;;;;;;;435.20;2355.20;;;;;;5037346;28;19913;-58
2022/09/04 04:30:29;;;;;;;;;;;435.30;2355.20;;;;;;5037658;28;19916;-58
2022/09/04 04:33:13;;;;;;;;;;;435.40;2355.20;;;;;;5037745;28;19962;-58
2022/09/04 04:35:57;;;;;;;;;;;435.50;2355.20;;;;;;5037555;28;19913;-57
2022/09/04 04:38:23;;;;;;;;;;;435.50;2073.60;;;;;;5037107;28;19909;-57
2022/09/04 04:40:52;;;;;;;;;;;435.60;2355.20;;;;;;5036454;28;20295;-56
2022/09/04 04:43:36;;;;;;;;;;;435.60;2355.20;;;;;;5037880;28;19913;-57
2022/09/04 04:46:01;;;;;;;;;;;435.60;2355.20;;;;;;5037258;28;20007;-58
2022/09/04 04:48:49;;;;;;;;;;;435.70;2022.40;;;;;;5037291;28;20016;-58
2022/09/04 04:51:17;;;;;;;;;;;435.60;2355.20;;;;;;5037152;28;19913;-57
2022/09/04 04:53:58;;;;;;;;;;;435.60;2022.40;;;;;;5037221;28;19920;-57
2022/09/04 04:56:25;;;;;;;;;;;435.60;2124.80;;;;;;5037303;28;20355;-58
2022/09/04 04:59:19;;;;;;;;;;;435.70;2355.20;;;;;;5037190;28;20252;-58
2022/09/04 05:01:51;;;;;;;;;;;435.90;2355.20;;;;;;5014938;28;20322;-58
2022/09/04 05:04:16;;;;;;;;;;;435.90;2355.20;;;;;;5037376;28;19916;-58
2022/09/04 05:06:51;;;;;;;;;;;435.90;2355.20;;;;;;5037199;28;19909;-58
2022/09/04 05:09:36;;;;;;;;;;;460.80;2380.80;;;;;;5037196;28;19917;-57
2022/09/04 05:12:02;;;;;;;;;;;460.90;2380.80;;;;;;5036955;28;19913;-56
2022/09/04 05:14:36;;;;;;;;;;;461.00;2380.80;;;;;;5037115;28;19979;-57
2022/09/04 05:17:02;;;;;;;;;;;461.00;2380.80;;;;;;5036907;28;20375;-58
2022/09/04 05:19:46;;;;;;;;;;;460.90;2380.80;;;;;;5037098;28;19928;-58
2022/09/04 05:22:19;;;;;;;;;;;460.80;2380.80;;;;;;5034029;28;19921;-58
2022/09/04 05:24:56;;;;;;;;;;;461.10;2380.80;;;;;;5033978;28;20352;-57
2022/09/04 05:27:22;;;;;;;;;;;461.30;2380.80;;;;;;5033636;28;20011;-57
2022/09/04 05:30:23;;;;;;;;;;;461.40;2380.80;;;;;;5033944;28;19925;-57
2022/09/04 05:32:57;;;;;;;;;;;461.40;2380.80;;;;;;4972990;28;19915;-57
2022/09/04 05:35:26;;;;;;;;;;;461.50;2380.80;;;;;;4972781;28;19937;-57
2022/09/04 05:37:57;;;;;;;;;;;461.60;2380.80;;;;;;4972648;28;19910;-58
2022/09/04 05:40:23;;;;;;;;;;;461.50;2380.80;;;;;;4972688;28;19917;-58
2022/09/04 05:43:07;;;;;;;;;;;461.60;2380.80;;;;;;4972839;28;19910;-58
2022/09/04 05:45:40;;;;;;;;;;;461.60;2380.80;;;;;;4972462;28;19910;-58
2022/09/04 05:48:24;;;;;;;;;;;461.70;2380.80;;;;;;4972707;28;19918;-59
2022/09/04 05:51:17;;;;;;;;;;;461.70;2380.80;;;;;;4972287;28;19918;-59
2022/09/04 05:53:45;;;;;;;;;;;486.40;2380.80;;;;;;4895891;29;19971;-58
2022/09/04 05:56:20;;;;;;;;;;;486.50;2380.80;;;;;;4896104;29;19912;-59
2022/09/04 05:58:51;;;;;;;;;;;486.50;2380.80;;;;;;4896165;29;20333;-58
2022/09/04 06:01:21;;;;;;;;;;;486.60;2380.80;;;;;;4896047;29;19911;-58
2022/09/04 06:04:07;;;;;;;;;;;486.70;2380.80;;;;;;4896086;29;19911;-58
2022/09/04 06:06:34;;;;;;;;;;;486.80;2380.80;;;;;;4833353;29;19912;-58
2022/09/04 06:09:16;;;;;;;;;;;486.90;2380.80;;;;;;4876902;29;19928;-58
2022/09/04 06:11:41;;;;;;;;;;;487.00;2380.80;;;;;;4876959;29;19912;-59
2022/09/04 06:14:20;;;;;;;;;;;487.10;2380.80;;;;;;4877329;29;19919;-58
2022/09/04 06:16:51;;;;;;;;;;;487.30;2380.80;;;;;;4877194;29;19915;-58
2022/09/04 06:19:35;;;;;;;;;;;512.10;2380.80;;;;;;4877146;29;20010;-58
2022/09/04 06:22:00;;;;;;;;;;;512.40;2380.80;;;;;;4876728;29;20034;-59
2022/09/04 06:24:26;;;;;;;;;;;512.80;2380.80;;;;;;4877498;29;20363;-58
2022/09/04 06:26:57;;;;;;;;;;;537.70;2406.40;;;;;;4876867;29;19971;-59
2022/09/04 06:29:29;;;;;;;;;;;538.30;2406.40;;;;;;4879172;29;19919;-58
2022/09/04 06:32:05;;;;;;;;;;;563.50;2432.00;;;;;;4933346;29;19917;-59
2022/09/04 06:34:33;;;;;;;;;;;589.60;2432.00;;;;;;4932292;29;19911;-59
2022/09/04 06:37:01;;;;;;;;;;;640.10;2432.00;;;;;;4933430;29;19993;-58
2022/09/04 06:39:39;;;;;;;;;;;640.00;2432.00;;;;;;4933359;29;20055;-59
2022/09/04 06:42:10;;;;;;;;;;;640.10;2432.00;;;;;;4933251;29;19923;-58
2022/09/04 06:44:42;;;;;;;;;;;640.20;2432.00;;;;;;5022291;28;19913;-58
2022/09/04 06:47:18;;;;;;;;;;;640.70;2432.00;;;;;;5032449;28;20330;-58
2022/09/04 06:50:03;;;;;;;;;;;717.10;2278.40;;;;;;5032253;28;19955;-57
2022/09/04 06:52:29;;;;;;;;;;;743.00;2124.80;;;;;;5032051;28;19960;-59
2022/09/04 06:54:55;;;;;;;;;;;768.60;1996.80;;;;;;5032377;28;19991;-58
2022/09/04 06:57:37;;;;;;;;;;;793.90;1920.00;;;;;;5032095;28;19909;-58
2022/09/04 07:00:07;;;;;;;;;;;845.70;1689.60;;;;;;5032136;28;19991;-58
2022/09/04 07:02:51;;;;;;;;;;;896.50;1536.00;;;;;;5031978;28;20325;-59
2022/09/04 07:05:52;;;;;;;;;;;922.10;1510.40;;;;;;5032073;28;19909;-59
2022/09/04 07:08:44;;;;;;;;;;;948.00;1408.00;;;;;;4971144;28;19929;-59
2022/09/04 07:11:15;;;;;;;;;;;947.90;1382.40;;;;;;4941671;28;20014;-59
2022/09/04 07:13:41;;;;;;;;;;;896.50;1484.80;;;;;;4971039;28;20376;-59
2022/09/04 07:16:08;;;;;;;;;;;;;;;;;;4971093;28;19917;-58
2022/09/04 07:18:33;;;;;;;;;;;794.50;1664.00;;;;;;4971017;28;19910;-57
2022/09/04 07:21:17;;;;;;;;;;;794.20;1689.60;;;;;;4970631;28;19921;-58
2022/09/04 07:23:43;;;;;;;;;;;;;;;;;;4970581;28;20296;-58
2022/09/04 07:26:10;;;;;;;;;;;794.50;1689.60;;;;;;4970923;28;19910;-58
2022/09/04 07:28:35;;;;;;;;;;;;;;;;;;4970868;28;19926;-59
2022/09/04 07:31:09;;;;;;;;;;;768.90;1715.20;;;;;;4970402;28;19914;-59
2022/09/04 07:33:47;;;;;;;;;;;743.20;1817.60;;;;;;4971042;28;19917;-59
2022/09/04 07:36:13;;;;;;;;;;;;;;;;;;4970353;28;19910;-59
2022/09/04 07:38:44;;;;;;;;;;;768.60;1792.00;;;;;;4970451;28;19914;-60
2022/09/04 07:41:15;;;;;;;;;;;896.80;1510.40;;;;;;4973167;28;19976;-60
2022/09/04 07:43:49;;;;;;;;;;;972.80;1408.00;;;;;;5031509;28;19916;-61
2022/09/04 07:46:21;;;;;;;;;;;948.10;1382.40;;;;;;5030927;28;20047;-60
2022/09/04 07:48:46;;;;;;;;;;;896.10;1459.20;;;;;;5031233;28;20393;-59
2022/09/04 07:51:16;;;;;;;;;;;871.20;1484.80;;;;;;5030800;28;20000;-60
2022/09/04 07:53:42;;;;;;;;;;;844.90;1587.20;;;;;;5031069;28;19917;-60
2022/09/04 07:56:34;;;;;;;;;;;819.60;1638.40;;;;;;5031587;28;19916;-59
2022/09/04 07:59:00;;;;;;;;;;;;;;;;;;4969948;28;19966;-60
2022/09/04 08:01:41;;;;;;;;;;;819.30;1664.00;;;;;;4970363;28;19914;-59
2022/09/04 08:04:15;;;;;;;;;;;793.90;1715.20;;;;;;4970360;28;20272;-60
2022/09/04 08:06:55;;;;;;;;;;;768.60;1715.20;;;;;;4970125;28;19918;-60
2022/09/04 08:09:36;;;;;;;;;;;768.00;1766.40;;;;;;4970067;28;19918;-60
2022/09/04 08:12:13;;;;;;;;;;;768.40;1715.20;;;;;;4970144;28;20013;-60
2022/09/04 08:14:44;;;;;;;;;;;794.20;1715.20;;;;;;4969951;28;19957;-61
2022/09/04 08:17:19;;;;;;;;;;;845.20;1664.00;;;;;;4970057;28;19911;-59
2022/09/04 08:19:48;;;;;;;;;;;845.00;1612.80;;;;;;4970191;28;19910;-59
2022/09/04 08:22:20;;;;;;;;;;;845.20;1612.80;;;;;;4969658;28;19950;-59
2022/09/04 08:24:55;;;;;;;;;;;845.30;1587.20;;;;;;4970123;28;19940;-60
2022/09/04 08:27:39;;;;;;;;;;;896.40;1484.80;;;;;;4969891;28;20001;-60
2022/09/04 08:30:06;;;;;;;;;;;922.20;1408.00;;;;;;4970114;28;19949;-60
2022/09/04 08:32:40;;;;;;;;;;;922.20;1408.00;;;;;;4969974;28;20004;-60
2022/09/04 08:35:19;;;;;;;;;;;947.20;1408.00;;;;;;4983448;28;19918;-59
2022/09/04 08:37:44;;;;;;;;;;;870.80;1484.80;;;;;;5030883;28;19939;-60
2022/09/04 08:40:10;;;;;;;;;;;870.40;1536.00;;;;;;5030585;28;20278;-60
2022/09/04 08:42:36;;;;;;;;;;;845.10;1587.20;;;;;;5031159;28;19916;-59
2022/09/04 08:45:37;;;;;;;;;;;845.00;1587.20;;;;;;5030693;28;20358;-60
2022/09/04 08:48:17;;;;;;;;;;;820.10;1587.20;;;;;;4969563;28;19914;-59
2022/09/04 08:51:01;;;;;;;;;;;819.60;1638.40;;;;;;5021034;28;19917;-59
2022/09/04 08:53:47;;;;;;;;;;;819.80;1587.20;;;;;;5028806;28;20280;-59
2022/09/04 08:56:24;;;;;;;;;;;794.10;1689.60;;;;;;5028509;28;19920;-68
2022/09/04 08:58:52;;;;;;;;;;;819.80;1612.80;;;;;;5032130;28;19910;-58
2022/09/04 09:01:18;;;;;;;;;;;819.30;1638.40;;;;;;5032308;28;19932;-65
2022/09/04 09:03:55;;;;;;;;;;;794.30;1664.00;;;;;;5031691;28;19984;-61
2022/09/04 09:06:30;;;;;;;;;;;768.90;1715.20;;;;;;5031980;28;19913;-72
2022/09/04 09:09:11;;;;;;;;;;;794.20;1715.20;;;;;;5032222;28;19924;-64
2022/09/04 09:12:01;;;;;;;;;;;768.60;1740.80;;;;;;5031982;28;19920;-69
2022/09/04 09:14:37;;;;;;;;;;;768.40;1766.40;;;;;;5031903;28;19956;-61
2022/09/04 09:17:11;;;;;;;;;;;742.80;1868.80;;;;;;5031890;28;19915;-65
2022/09/04 09:19:57;;;;;;;;;;;743.30;1792.00;;;;;;5031968;28;20323;-69
2022/09/04 09:22:37;;;;;;;;;;;742.80;1843.20;;;;;;5031504;28;20322;-70
2022/09/04 09:25:18;;;;;;;;;;;768.10;1843.20;;;;;;5031792;28;20383;-58
2022/09/04 09:27:47;;;;;;;;;;;768.50;1817.60;;;;;;5031404;28;20003;-58
2022/09/04 09:30:18;;;;;;;;;;;793.80;1792.00;;;;;;5031516;28;19913;-59
2022/09/04 09:33:04;;;;;;;;;;;793.70;1817.60;;;;;;5031561;28;20434;-59
2022/09/04 09:35:51;;;;;;;;;;;793.70;1766.40;;;;;;5020674;28;19910;-58
2022/09/04 09:38:36;;;;;;;;;;;768.70;1766.40;;;;;;5029901;28;20336;-59
2022/09/04 09:41:15;;;;;;;;;;;768.80;1766.40;;;;;;5029544;28;19944;-61
2022/09/04 09:43:50;;;;;;;;;;;793.60;1792.00;;;;;;5031490;28;20013;-67
2022/09/04 09:46:16;;;;;;;;;;;768.70;1817.60;;;;;;5031404;28;19909;-70
2022/09/04 09:48:53;;;;;;;;;;;768.70;1792.00;;;;;;5031184;28;19921;-62
2022/09/04 09:51:38;;;;;;;;;;;768.60;1817.60;;;;;;5029766;28;20353;-59
2022/09/04 09:54:22;;;;;;;;;;;768.80;1792.00;;;;;;5030671;28;19956;-59
2022/09/04 09:57:06;;;;;;;;;;;768.40;1817.60;;;;;;5031395;28;20599;-69
2022/09/04 09:59:50;;;;;;;;;;;768.40;1843.20;;;;;;5031074;28;19955;-58
2022/09/04 10:02:18;;;;;;;;;;;742.90;1868.80;;;;;;5031467;28;19916;-63
2022/09/04 10:05:03;;;;;;;;;;;743.00;1868.80;;;;;;5031397;28;19917;-67
2022/09/04 10:07:35;;;;;;;;;;;743.20;1894.40;;;;;;5030362;28;20000;-69
2022/09/04 10:10:20;;;;;;;;;;;743.00;1843.20;;;;;;5030965;28;19924;-59
2022/09/04 10:13:04;;;;;;;;;;;768.10;1843.20;;;;;;5031135;28;19932;-66
2022/09/04 10:15:49;;;;;;;;;;;768.00;1843.20;;;;;;5030710;28;19943;-69
2022/09/04 10:18:33;;;;;;;;;;;742.40;1945.60;;;;;;5031034;28;19967;-58
2022/09/04 10:21:19;;;;;;;;;;;742.90;1920.00;;;;;;5030496;28;19965;-71
2022/09/04 10:23:55;;;;;;;;;;;743.00;1920.00;;;;;;5030676;28;19929;-69
2022/09/04 10:26:38;;;;;;;;;;;742.80;1894.40;;;;;;5030517;28;19917;-61
2022/09/04 10:29:04;;;;;;;;;;;742.90;1920.00;;;;;;5030423;28;20359;-64
2022/09/04 10:31:35;;;;;;;;;;;743.30;1894.40;;;;;;5030438;28;19920;-66
2022/09/04 10:34:13;;;;;;;;;;;742.60;1920.00;;;;;;5030010;28;20343;-66
2022/09/04 10:36:45;;;;;;;;;;;717.50;1945.60;;;;;;5030370;28;19998;-64
2022/09/04 10:42:21;;;;;;;;;;;742.50;1971.20;;;;;;5030292;28;19916;-67
2022/09/04 10:44:54;;;;;;;;;;;742.90;1945.60;;;;;;5030532;28;19909;-69
2022/09/04 10:47:26;;;;;;;;;;;742.70;1945.60;;;;;;5029968;28;20461;-68
2022/09/04 10:50:12;;;;;;;;;;;742.60;1920.00;;;;;;5030238;28;20019;-63
2022/09/04 10:52:59;;;;;;;;;;;742.50;1945.60;;;;;;5030141;28;19920;-66
2022/09/04 10:55:44;;;;;;;;;;;717.60;1945.60;;;;;;5030193;28;19918;-64
2022/09/04 10:58:29;;;;;;;;;;;742.40;1945.60;;;;;;5029936;28;19915;-64
2022/09/04 11:01:02;;;;;;;;;;;717.70;1971.20;;;;;;5030039;28;19913;-66
2022/09/04 11:03:42;;;;;;;;;;;717.30;1996.80;;;;;;5030167;28;19945;-65
2022/09/04 11:06:25;;;;;;;;;;;742.70;1971.20;;;;;;5029898;28;19916;-67
2022/09/04 11:08:59;;;;;;;;;;;742.40;1971.20;;;;;;5029708;28;19967;-69
2022/09/04 11:11:43;;;;;;;;;;;742.80;1971.20;;;;;;5029982;28;20407;-67
2022/09/04 11:14:44;;;;;;;;;;;743.10;1971.20;;;;;;5029419;28;20011;-69
2022/09/04 11:17:32;;;;;;;;;;;742.60;1996.80;;;;;;4968389;28;19910;-64
2022/09/04 11:20:11;;;;;;;;;;;717.40;1996.80;;;;;;4967930;28;20004;-68
2022/09/04 11:22:37;;;;;;;;;;;;;;;;;;4968373;28;19966;-67
2022/09/04 11:25:05;;;;;;;;;;;717.10;2022.40;;;;;;4968258;28;19914;-64
2022/09/04 11:27:37;;;;;;;;;;;717.40;1996.80;;;;;;4968090;28;19982;-70
2022/09/04 11:30:12;;;;;;;;;;;717.10;2048.00;;;;;;4968102;28;19957;-64
2022/09/04 11:32:44;;;;;;;;;;;716.90;2022.40;;;;;;4968361;28;20081;-63
2022/09/04 11:35:35;;;;;;;;;;;717.10;1996.80;;;;;;4968166;28;20065;-68
2022/09/04 11:38:03;;;;;;;;;;;717.40;2022.40;;;;;;4967981;28;19911;-68
2022/09/04 11:40:28;;;;;;;;;;;717.30;2022.40;;;;;;4968015;28;20359;-64
2022/09/04 11:42:56;;;;;;;;;;;716.90;2022.40;;;;;;4967954;28;19966;-63
2022/09/04 11:45:31;;;;;;;;;;;717.10;2022.40;;;;;;4967742;28;19910;-68
2022/09/04 11:48:02;;;;;;;;;;;717.30;2022.40;;;;;;4968113;28;19914;-65
2022/09/04 11:50:55;;;;;;;;;;;692.00;2022.40;;;;;;4972727;28;19960;-62
2022/09/04 11:53:39;;;;;;;;;;;691.80;2048.00;;;;;;4989438;28;19918;-66
2022/09/04 11:56:17;;;;;;;;;;;716.80;2073.60;;;;;;4988939;28;20008;-64
2022/09/04 11:58:49;;;;;;;;;;;716.90;2073.60;;;;;;4989660;28;19916;-65
2022/09/04 12:01:17;;;;;;;;;;;716.90;2022.40;;;;;;4989769;28;19910;-64
2022/09/04 12:03:48;;;;;;;;;;;717.00;2073.60;;;;;;4989513;28;19910;-63
2022/09/04 12:06:20;;;;;;;;;;;692.00;2048.00;;;;;;4989262;28;19917;-63
2022/09/04 12:08:46;;;;;;;;;;;;;;;;;;4989705;28;19988;-62
2022/09/04 12:11:20;;;;;;;;;;;691.80;2073.60;;;;;;4989534;28;19913;-64
2022/09/04 12:14:04;;;;;;;;;;;692.00;2073.60;;;;;;4989845;28;19909;-62
2022/09/04 12:16:42;;;;;;;;;;;691.90;2099.20;;;;;;4989430;28;19964;-62
2022/09/04 12:19:27;;;;;;;;;;;691.70;2073.60;;;;;;4988366;28;19936;-63
2022/09/04 12:21:56;;;;;;;;;;;691.70;2099.20;;;;;;4997158;28;19925;-63
2022/09/04 12:24:24;;;;;;;;;;;691.80;2099.20;;;;;;5028575;28;20012;-67
2022/09/04 12:26:55;;;;;;;;;;;691.80;2073.60;;;;;;5028565;28;19913;-67
2022/09/04 12:29:33;;;;;;;;;;;692.00;2022.40;;;;;;5028619;28;19944;-61
2022/09/04 12:32:17;;;;;;;;;;;691.60;2099.20;;;;;;5031077;28;19921;-62
2022/09/04 12:34:49;;;;;;;;;;;691.60;2099.20;;;;;;5032649;28;19914;-63
2022/09/04 12:37:23;;;;;;;;;;;691.60;2099.20;;;;;;5032562;28;19974;-64
2022/09/04 12:40:01;;;;;;;;;;;691.60;2124.80;;;;;;5032741;28;19948;-63
2022/09/04 12:42:45;;;;;;;;;;;691.80;2099.20;;;;;;5032784;28;19909;-63
2022/09/04 12:45:13;;;;;;;;;;;691.90;2099.20;;;;;;5032077;28;19913;-63
2022/09/04 12:47:41;;;;;;;;;;;692.10;2048.00;;;;;;5032318;28;19913;-63
2022/09/04 12:50:14;;;;;;;;;;;691.60;2073.60;;;;;;5033878;28;19921;-65
2022/09/04 12:52:52;;;;;;;;;;;692.00;2022.40;;;;;;5034263;28;19916;-69
2022/09/04 12:55:22;;;;;;;;;;;717.10;2099.20;;;;;;5034677;28;19983;-66
2022/09/04 12:57:54;;;;;;;;;;;717.00;2073.60;;;;;;5031532;28;19964;-70
2022/09/04 13:00:21;;;;;;;;;;;716.90;2048.00;;;;;;5032035;28;19953;-63
2022/09/04 13:03:06;;;;;;;;;;;692.10;2022.40;;;;;;5032806;28;20316;-69
2022/09/04 13:05:32;;;;;;;;;;;692.10;2073.60;;;;;;4970636;28;19913;-70
2022/09/04 13:07:57;;;;;;;;;;;716.80;2073.60;;;;;;4970923;28;19928;-69
2022/09/04 13:10:41;;;;;;;;;;;692.00;2073.60;;;;;;4970211;28;19921;-70
2022/09/04 13:13:09;;;;;;;;;;;692.00;2073.60;;;;;;4970897;28;20012;-68
2022/09/04 13:15:42;;;;;;;;;;;691.60;2099.20;;;;;;4972506;28;20500;-70
2022/09/04 13:18:26;;;;;;;;;;;691.40;2073.60;;;;;;4973093;28;19911;-69
2022/09/04 13:21:01;;;;;;;;;;;691.20;2099.20;;;;;;4972787;28;20277;-69
2022/09/04 13:23:34;;;;;;;;;;;691.40;2124.80;;;;;;4972924;28;19933;-69
2022/09/04 13:26:02;;;;;;;;;;;691.60;2099.20;;;;;;4972860;28;19941;-69
2022/09/04 13:28:50;;;;;;;;;;;691.70;2073.60;;;;;;4973232;28;19969;-70
2022/09/04 13:31:18;;;;;;;;;;;691.80;2073.60;;;;;;4973112;28;19910;-68
2022/09/04 13:33:53;;;;;;;;;;;666.50;2124.80;;;;;;4973198;28;19918;-69
2022/09/04 13:36:37;;;;;;;;;;;691.30;2150.40;;;;;;4972784;28;19910;-68
2022/09/04 13:39:17;;;;;;;;;;;691.40;2150.40;;;;;;4972642;28;19910;-69
2022/09/04 13:42:05;;;;;;;;;;;691.50;2124.80;;;;;;4972728;28;20440;-68
2022/09/04 13:44:56;;;;;;;;;;;691.60;2124.80;;;;;;4991658;28;19910;-69
2022/09/04 13:47:23;;;;;;;;;;;691.80;2099.20;;;;;;4990723;28;20016;-70
2022/09/04 13:50:21;;;;;;;;;;;692.10;2124.80;;;;;;4992161;28;20394;-69
2022/09/04 13:52:51;;;;;;;;;;;716.80;2124.80;;;;;;4969481;28;19918;-70
2022/09/04 13:55:21;;;;;;;;;;;692.10;2099.20;;;;;;4970120;28;19918;-70
2022/09/04 13:58:10;;;;;;;;;;;692.10;2073.60;;;;;;4970200;28;19914;-71
2022/09/04 14:00:38;;;;;;;;;;;691.70;2073.60;;;;;;4959912;28;19969;-69
2022/09/04 14:03:08;;;;;;;;;;;691.30;2099.20;;;;;;4970020;28;19910;-69
2022/09/04 14:05:36;;;;;;;;;;;666.50;2124.80;;;;;;4969248;28;20257;-70
2022/09/04 14:08:07;;;;;;;;;;;666.50;2150.40;;;;;;4969785;28;20329;-69
2022/09/04 14:10:51;;;;;;;;;;;666.10;2150.40;;;;;;4969602;28;19914;-69
2022/09/04 14:13:21;;;;;;;;;;;665.80;2227.20;;;;;;4953779;28;19949;-67
2022/09/04 14:16:07;;;;;;;;;;;665.60;2227.20;;;;;;4969725;28;19910;-64
2022/09/04 14:18:51;;;;;;;;;;;665.60;2227.20;;;;;;4969005;28;20425;-70
2022/09/04 14:21:16;;;;;;;;;;;665.60;2201.60;;;;;;4969662;28;20352;-70
2022/09/04 14:23:55;;;;;;;;;;;665.90;2201.60;;;;;;4987912;28;20349;-69
2022/09/04 14:26:23;;;;;;;;;;;665.90;2201.60;;;;;;4988787;28;19919;-69
2022/09/04 14:29:06;;;;;;;;;;;665.70;2201.60;;;;;;5003593;28;19965;-68
2022/09/04 14:31:39;;;;;;;;;;;665.90;2201.60;;;;;;5010309;28;19917;-68